createdAt,value
2022-12-11T00:00:24.572Z,96516.53
2022-12-11T00:02:29.395Z,96512.28
2022-12-11T00:04:32.546Z,96510.56
2022-12-11T00:06:35.603Z,96508.88
2022-12-11T00:08:38.757Z,96502.03
2022-12-11T00:10:41.431Z,96502.91
2022-12-11T00:12:44.082Z,96496.06
2022-12-11T00:14:46.713Z,96500.34
2022-12-11T00:16:49.980Z,96498.66
2022-12-11T00:18:54.105Z,96506.34
2022-12-11T00:20:56.759Z,96502.13
2022-12-11T00:22:59.379Z,96500.41
2022-12-11T00:25:01.982Z,96498.75
2022-12-11T00:27:04.719Z,96498.75
2022-12-11T00:29:08.348Z,96498.75
2022-12-11T00:31:15.192Z,96503.91
2022-12-11T00:33:18.181Z,96498.75
2022-12-11T00:35:22.130Z,96491.91
2022-12-11T00:37:24.946Z,96494.50
2022-12-11T00:39:27.573Z,96495.38
2022-12-11T00:41:30.210Z,96492.81
2022-12-11T00:43:32.957Z,96495.38
2022-12-11T00:45:37.916Z,96489.41
2022-12-11T00:47:40.613Z,96487.72
2022-12-11T00:49:49.401Z,96491.22
2022-12-11T00:51:53.848Z,96492.06
2022-12-11T00:53:56.628Z,96499.84
2022-12-11T00:55:59.257Z,96497.28
2022-12-11T00:58:01.843Z,96493.09
2022-12-11T01:00:07.444Z,96499.94
2022-12-11T01:02:10.064Z,96498.25
2022-12-11T01:04:12.725Z,96499.16
2022-12-11T01:06:17.204Z,96504.25
2022-12-11T01:08:21.577Z,96518.03
2022-12-11T01:10:26.210Z,96516.47
2022-12-11T01:12:28.853Z,96517.31
2022-12-11T01:14:31.470Z,96517.25
2022-12-11T01:16:34.313Z,96531.00
2022-12-11T01:18:37.325Z,96525.06
2022-12-11T01:20:40.967Z,96532.78
2022-12-11T01:22:43.627Z,96530.19
2022-12-11T01:24:47.674Z,96537.00
2022-12-11T01:26:50.256Z,96531.00
2022-12-11T01:28:53.347Z,96536.13
2022-12-11T01:30:55.966Z,96539.56
2022-12-11T01:32:58.613Z,96540.44
2022-12-11T01:35:01.946Z,96544.72
2022-12-11T01:37:04.688Z,96549.81
2022-12-11T01:39:07.355Z,96548.97
2022-12-11T01:41:11.566Z,96547.25
2022-12-11T01:43:14.193Z,96549.78
2022-12-11T01:45:30.693Z,96552.31
2022-12-11T01:47:33.343Z,96546.31
2022-12-11T01:49:36.453Z,96546.34
2022-12-11T01:51:42.782Z,96548.91
2022-12-11T01:53:51.868Z,96549.78
2022-12-11T01:55:56.684Z,96553.22
2022-12-11T01:58:01.566Z,96551.53
2022-12-11T02:00:05.987Z,96558.34
2022-12-11T02:02:13.090Z,96548.94
2022-12-11T02:04:17.012Z,96555.72
2022-12-11T02:06:31.929Z,96556.59
2022-12-11T02:08:34.628Z,96558.31
2022-12-11T02:11:00.229Z,96559.97
2022-12-11T02:13:13.000Z,96554.88
2022-12-11T02:15:23.457Z,96558.28
2022-12-11T02:17:33.883Z,96564.25
2022-12-11T02:19:54.029Z,96567.59
2022-12-11T02:21:57.991Z,96569.31
2022-12-11T02:24:28.173Z,96562.53
2022-12-11T02:26:44.410Z,96558.19
2022-12-11T02:28:52.517Z,96565.06
2022-12-11T02:31:00.536Z,96565.03
2022-12-11T02:33:03.342Z,96562.50
2022-12-11T02:35:13.023Z,96559.03
2022-12-11T02:37:21.587Z,96561.63
2022-12-11T02:39:26.969Z,96560.78
2022-12-11T02:41:30.748Z,96569.31
2022-12-11T02:43:35.265Z,96564.19
2022-12-11T02:45:43.996Z,96566.81
2022-12-11T02:47:48.959Z,96562.50
2022-12-11T02:49:53.005Z,96566.81
2022-12-11T02:51:57.601Z,96560.06
2022-12-11T02:54:00.851Z,96558.34
2022-12-11T02:56:09.592Z,96556.66
2022-12-11T02:58:17.407Z,96560.94
2022-12-11T03:00:20.734Z,96560.97
2022-12-11T03:02:24.770Z,96548.16
2022-12-11T03:04:27.492Z,96553.28
2022-12-11T03:06:36.208Z,96549.88
2022-12-11T03:08:38.862Z,96549.03
2022-12-11T03:10:41.475Z,96546.50
2022-12-11T03:12:50.473Z,96547.34
2022-12-11T03:14:56.371Z,96562.78
2022-12-11T03:17:08.971Z,96561.91
2022-12-11T03:19:25.203Z,96572.19
2022-12-11T03:21:35.092Z,96560.22
2022-12-11T03:23:44.066Z,96562.81
2022-12-11T03:25:54.592Z,96557.66
2022-12-11T03:27:59.930Z,96553.47
2022-12-11T03:30:07.353Z,96563.69
2022-12-11T03:32:14.500Z,96563.66
2022-12-11T03:34:24.011Z,96556.88
2022-12-11T03:36:31.732Z,96562.91
2022-12-11T03:38:40.165Z,96561.22
2022-12-11T03:40:45.521Z,96564.66
2022-12-11T03:42:51.826Z,96568.06
2022-12-11T03:44:58.224Z,96560.38
2022-12-11T03:47:04.699Z,96561.22
2022-12-11T03:49:13.992Z,96565.50
2022-12-11T03:51:18.617Z,96567.19
2022-12-11T03:53:22.335Z,96570.66
2022-12-11T03:55:27.109Z,96560.44
2022-12-11T03:57:32.819Z,96553.59
2022-12-11T03:59:35.403Z,96551.91
2022-12-11T04:01:38.294Z,96545.97
2022-12-11T04:03:40.974Z,96546.84
2022-12-11T04:05:46.075Z,96554.53
2022-12-11T04:07:50.086Z,96552.00
2022-12-11T04:09:52.742Z,96547.69
2022-12-11T04:11:54.383Z,96546.88
2022-12-11T04:14:10.739Z,96545.16
2022-12-11T04:16:13.392Z,96544.34
2022-12-11T04:18:33.315Z,96551.19
2022-12-11T04:20:53.617Z,96543.50
2022-12-11T04:23:15.207Z,96543.50
2022-12-11T04:25:20.779Z,96541.78
2022-12-11T04:27:40.823Z,96536.66
2022-12-11T04:29:43.396Z,96542.66
2022-12-11T04:31:47.278Z,96546.09
2022-12-11T04:33:49.996Z,96543.56
2022-12-11T04:35:52.739Z,96551.25
2022-12-11T04:37:56.785Z,96551.25
2022-12-11T04:39:59.395Z,96548.69
2022-12-11T04:42:02.026Z,96547.81
2022-12-11T04:44:05.033Z,96539.19
2022-12-11T04:46:09.697Z,96534.94
2022-12-11T04:48:12.303Z,96541.75
2022-12-11T04:50:16.015Z,96538.44
2022-12-11T04:52:19.217Z,96541.88
2022-12-11T04:54:23.290Z,96539.31
2022-12-11T04:56:25.951Z,96535.09
2022-12-11T04:58:29.164Z,96541.97
2022-12-11T05:00:31.803Z,96533.34
2022-12-11T05:02:36.094Z,96535.88
2022-12-11T05:04:38.782Z,96531.56
2022-12-11T05:06:41.541Z,96537.63
2022-12-11T05:08:45.212Z,96550.34
2022-12-11T05:10:58.376Z,96548.78
2022-12-11T05:13:01.046Z,96553.06
2022-12-11T05:15:03.830Z,96547.94
2022-12-11T05:17:06.414Z,96551.34
2022-12-11T05:19:09.164Z,96543.59
2022-12-11T05:21:14.359Z,96539.34
2022-12-11T05:23:16.929Z,96538.53
2022-12-11T05:25:19.579Z,96533.41
2022-12-11T05:27:23.567Z,96532.56
2022-12-11T05:29:26.158Z,96536.81
2022-12-11T05:31:29.248Z,96538.56
2022-12-11T05:33:32.696Z,96540.25
2022-12-11T05:35:35.297Z,96539.44
2022-12-11T05:37:37.900Z,96534.34
2022-12-11T05:39:40.520Z,96538.56
2022-12-11T05:41:43.139Z,96531.72
2022-12-11T05:43:47.074Z,96524.91
2022-12-11T05:45:49.690Z,96519.75
2022-12-11T05:47:52.273Z,96517.19
2022-12-11T05:49:54.868Z,96514.63
2022-12-11T05:51:58.631Z,96511.97
2022-12-11T05:54:01.687Z,96512.00
2022-12-11T05:56:05.500Z,96508.59
2022-12-11T05:58:08.108Z,96515.44
2022-12-11T06:00:13.731Z,96513.75
2022-12-11T06:02:16.526Z,96510.31
2022-12-11T06:04:19.249Z,96506.91
2022-12-11T06:06:22.396Z,96511.19
2022-12-11T06:08:25.010Z,96512.00
2022-12-11T06:10:27.680Z,96510.31
2022-12-11T06:12:31.095Z,96510.31
2022-12-11T06:14:33.700Z,96503.47
2022-12-11T06:16:37.817Z,96495.78
2022-12-11T06:18:42.643Z,96490.59
2022-12-11T06:20:45.466Z,96483.81
2022-12-11T06:22:48.464Z,96477.00
2022-12-11T06:24:51.339Z,96474.44
2022-12-11T06:26:53.979Z,96465.88
2022-12-11T06:28:56.604Z,96458.19
2022-12-11T06:30:59.743Z,96461.59
2022-12-11T06:33:03.675Z,96466.78
2022-12-11T06:35:07.357Z,96465.94
2022-12-11T06:37:10.014Z,96465.16
2022-12-11T06:39:12.610Z,96466.03
2022-12-11T06:41:16.098Z,96468.59
2022-12-11T06:43:18.668Z,96472.00
2022-12-11T06:45:21.379Z,96481.34
2022-12-11T06:47:24.206Z,96489.03
2022-12-11T06:49:28.258Z,96485.63
2022-12-11T06:51:31.253Z,96497.59
2022-12-11T06:53:33.909Z,96490.81
2022-12-11T06:55:37.004Z,96494.19
2022-12-11T06:57:39.628Z,96495.13
2022-12-11T06:59:42.234Z,96490.84
2022-12-11T07:01:44.809Z,96489.97
2022-12-11T07:03:47.943Z,96488.28
2022-12-11T07:05:52.007Z,96488.31
2022-12-11T07:07:55.539Z,96490.00
2022-12-11T07:10:02.737Z,96487.44
2022-12-11T07:12:10.292Z,96493.44
2022-12-11T07:14:12.962Z,96495.13
2022-12-11T07:16:17.925Z,96501.13
2022-12-11T07:18:20.606Z,96506.25
2022-12-11T07:20:23.357Z,96506.25
2022-12-11T07:22:27.430Z,96512.22
2022-12-11T07:24:30.028Z,96510.50
2022-12-11T07:26:32.640Z,96514.81
2022-12-11T07:28:36.090Z,96512.25
2022-12-11T07:30:41.826Z,96515.63
2022-12-11T07:32:44.645Z,96514.78
2022-12-11T07:34:51.518Z,96521.63
2022-12-11T07:36:54.604Z,96519.97
2022-12-11T07:38:59.507Z,96524.25
2022-12-11T07:41:02.504Z,96523.34
2022-12-11T07:43:05.190Z,96524.22
2022-12-11T07:45:08.931Z,96520.81
2022-12-11T07:47:11.719Z,96524.19
2022-12-11T07:49:14.333Z,96525.91
2022-12-11T07:51:18.546Z,96521.66
2022-12-11T07:53:21.263Z,96517.38
2022-12-11T07:55:25.309Z,96519.09
2022-12-11T07:57:29.627Z,96514.84
2022-12-11T07:59:32.597Z,96516.53
2022-12-11T08:01:36.761Z,96515.66
2022-12-11T08:03:39.410Z,96513.13
2022-12-11T08:05:48.631Z,96506.28
2022-12-11T08:07:51.307Z,96516.53
2022-12-11T08:09:53.930Z,96512.25
2022-12-11T08:11:57.898Z,96516.53
2022-12-11T08:14:01.028Z,96509.69
2022-12-11T08:16:05.145Z,96503.72
2022-12-11T08:18:07.763Z,96509.66
2022-12-11T08:20:11.438Z,96519.06
2022-12-11T08:22:14.374Z,96514.81
2022-12-11T08:24:20.601Z,96513.97
2022-12-11T08:26:25.439Z,96516.53
2022-12-11T08:28:29.362Z,96522.47
2022-12-11T08:30:32.442Z,96519.94
2022-12-11T08:32:35.437Z,96513.97
2022-12-11T08:34:38.011Z,96517.38
2022-12-11T08:36:41.014Z,96513.97
2022-12-11T08:38:43.855Z,96518.25
2022-12-11T08:40:46.432Z,96518.25
2022-12-11T08:42:49.135Z,96519.94
2022-12-11T08:44:53.066Z,96518.22
2022-12-11T08:46:55.668Z,96520.75
2022-12-11T08:48:58.859Z,96520.81
2022-12-11T08:51:02.287Z,96527.59
2022-12-11T08:53:04.971Z,96527.59
2022-12-11T08:55:08.776Z,96531.84
2022-12-11T08:57:11.627Z,96521.63
2022-12-11T08:59:14.220Z,96527.56
2022-12-11T09:01:21.564Z,96524.16
2022-12-11T09:03:24.391Z,96528.41
2022-12-11T09:05:27.022Z,96528.41
2022-12-11T09:07:29.625Z,96518.13
2022-12-11T09:09:32.257Z,96523.22
2022-12-11T09:11:37.274Z,96511.28
2022-12-11T09:13:41.420Z,96516.38
2022-12-11T09:15:45.617Z,96511.25
2022-12-11T09:17:49.677Z,96516.31
2022-12-11T09:19:52.491Z,96512.03
2022-12-11T09:21:55.176Z,96508.56
2022-12-11T09:23:59.471Z,96507.69
2022-12-11T09:26:05.919Z,96514.53
2022-12-11T09:28:08.491Z,96512.81
2022-12-11T09:30:11.583Z,96507.69
2022-12-11T09:32:14.186Z,96507.56
2022-12-11T09:34:18.111Z,96498.84
2022-12-11T09:36:20.768Z,96498.88
2022-12-11T09:38:23.361Z,96506.69
2022-12-11T09:40:26.004Z,96502.41
2022-12-11T09:42:34.385Z,96504.97
2022-12-11T09:44:43.245Z,96496.34
2022-12-11T09:46:49.613Z,96494.66
2022-12-11T09:48:53.656Z,96493.78
2022-12-11T09:50:58.390Z,96488.69
2022-12-11T09:53:09.485Z,96485.22
2022-12-11T09:55:17.358Z,96483.53
2022-12-11T09:57:30.988Z,96483.44
2022-12-11T09:59:42.813Z,96479.16
2022-12-11T10:01:47.848Z,96477.50
2022-12-11T10:04:06.537Z,96477.41
2022-12-11T10:06:16.548Z,96481.69
2022-12-11T10:08:26.385Z,96478.31
2022-12-11T10:10:40.315Z,96480.75
2022-12-11T10:12:51.569Z,96476.50
2022-12-11T10:15:13.890Z,96488.50
2022-12-11T10:17:21.056Z,96482.50
2022-12-11T10:19:27.609Z,96480.81
2022-12-11T10:21:39.908Z,96471.22
2022-12-11T10:23:47.909Z,96475.59
2022-12-11T10:25:55.301Z,96463.72
2022-12-11T10:27:58.123Z,96471.38
2022-12-11T10:30:08.494Z,96463.66
2022-12-11T10:32:22.542Z,96464.56
2022-12-11T10:34:34.814Z,96452.56
2022-12-11T10:36:41.722Z,96449.06
2022-12-11T10:38:46.217Z,96450.72
2022-12-11T10:40:55.736Z,96448.09
2022-12-11T10:42:58.326Z,96448.13
2022-12-11T10:45:03.095Z,96448.97
2022-12-11T10:47:10.259Z,96452.31
2022-12-11T10:49:23.528Z,96449.75
2022-12-11T10:51:35.969Z,96446.34
2022-12-11T10:53:43.194Z,96442.03
2022-12-11T10:55:48.498Z,96446.00
2022-12-11T10:58:00.734Z,96435.91
2022-12-11T11:00:06.069Z,96430.75
2022-12-11T11:02:22.823Z,96429.09
2022-12-11T11:04:31.807Z,96427.38
2022-12-11T11:06:36.257Z,96417.97
2022-12-11T11:08:44.058Z,96419.63
2022-12-11T11:10:55.843Z,96423.06
2022-12-11T11:13:01.639Z,96427.31
2022-12-11T11:15:07.569Z,96424.78
2022-12-11T11:17:16.629Z,96418.66
2022-12-11T11:19:25.763Z,96420.41
2022-12-11T11:21:30.053Z,96417.06
2022-12-11T11:23:32.835Z,96413.44
2022-12-11T11:25:36.834Z,96404.97
2022-12-11T11:27:45.226Z,96402.97
2022-12-11T11:29:52.939Z,96397.16
2022-12-11T11:31:56.159Z,96392.97
2022-12-11T11:34:03.209Z,96394.63
2022-12-11T11:36:08.351Z,96391.94
2022-12-11T11:38:19.982Z,96387.53
2022-12-11T11:40:29.197Z,96397.84
2022-12-11T11:42:42.719Z,96395.25
2022-12-11T11:44:54.639Z,96394.25
2022-12-11T11:47:00.066Z,96393.53
2022-12-11T11:49:11.691Z,96388.41
2022-12-11T11:51:17.187Z,96388.25
2022-12-11T11:53:25.390Z,96387.44
2022-12-11T11:55:39.749Z,96388.25
2022-12-11T11:57:49.723Z,96388.19
2022-12-11T11:59:57.156Z,96378.63
2022-12-11T12:02:00.478Z,96371.81
2022-12-11T12:04:04.912Z,96382.22
2022-12-11T12:06:15.543Z,96386.41
2022-12-11T12:08:27.473Z,96378.75
2022-12-11T12:10:38.025Z,96379.50
2022-12-11T12:12:50.698Z,96374.34
2022-12-11T12:15:03.378Z,96369.28
2022-12-11T12:17:20.339Z,96366.66
2022-12-11T12:19:42.457Z,96368.81
2022-12-11T12:21:50.274Z,96364.69
2022-12-11T12:24:10.541Z,96366.47
2022-12-11T12:26:18.298Z,96368.94
2022-12-11T12:28:30.429Z,96361.31
2022-12-11T12:30:41.239Z,96365.63
2022-12-11T12:32:56.537Z,96361.44
2022-12-11T12:35:11.448Z,96365.69
2022-12-11T12:37:25.569Z,96356.34
2022-12-11T12:39:36.364Z,96361.38
2022-12-11T12:41:49.132Z,96364.78
2022-12-11T12:44:05.128Z,96363.13
2022-12-11T12:46:20.797Z,96361.31
2022-12-11T12:48:25.919Z,96360.38
2022-12-11T12:50:38.379Z,96350.91
2022-12-11T12:52:42.639Z,96357.81
2022-12-11T12:55:08.745Z,96355.22
2022-12-11T12:57:11.839Z,96355.28
2022-12-11T12:59:26.575Z,96358.69
2022-12-11T13:01:32.332Z,96358.63
2022-12-11T13:03:38.568Z,96360.34
2022-12-11T13:05:44.258Z,96356.00
2022-12-11T13:07:54.478Z,96366.28
2022-12-11T13:10:00.768Z,96359.41
2022-12-11T13:12:14.478Z,96355.78
2022-12-11T13:14:31.612Z,96360.06
2022-12-11T13:16:39.259Z,96354.13
2022-12-11T13:18:44.261Z,96354.03
2022-12-11T13:20:51.038Z,96349.88
2022-12-11T13:23:19.544Z,96346.50
2022-12-11T13:25:26.706Z,96345.75
2022-12-11T13:27:38.987Z,96345.59
2022-12-11T13:29:43.553Z,96349.91
2022-12-11T13:31:46.773Z,96348.25
2022-12-11T13:33:51.541Z,96346.47
2022-12-11T13:36:25.010Z,96349.25
2022-12-11T13:38:27.773Z,96357.56
2022-12-11T13:40:38.254Z,96348.91
2022-12-11T13:42:48.989Z,96351.41
2022-12-11T13:44:53.759Z,96350.41
2022-12-11T13:46:58.913Z,96347.72
2022-12-11T13:49:03.970Z,96349.25
2022-12-11T13:51:07.647Z,96356.84
2022-12-11T13:53:17.607Z,96353.25
2022-12-11T13:55:25.016Z,96344.66
2022-12-11T13:57:29.118Z,96347.94
2022-12-11T13:59:35.536Z,96342.72
2022-12-11T14:01:40.827Z,96355.50
2022-12-11T14:03:54.005Z,96355.47
2022-12-11T14:05:56.798Z,96355.41
2022-12-11T14:08:03.608Z,96358.03
2022-12-11T14:10:09.548Z,96356.34
2022-12-11T14:12:18.322Z,96354.72
2022-12-11T14:14:24.729Z,96358.16
2022-12-11T14:16:28.364Z,96358.31
2022-12-11T14:18:34.569Z,96361.00
2022-12-11T14:20:37.187Z,96353.34
2022-12-11T14:22:39.804Z,96363.66
2022-12-11T14:24:49.781Z,96361.19
2022-12-11T14:26:54.983Z,96366.41
2022-12-11T14:28:57.898Z,96359.59
2022-12-11T14:31:02.782Z,96373.38
2022-12-11T14:33:06.860Z,96369.13
2022-12-11T14:35:26.470Z,96370.03
2022-12-11T14:37:29.527Z,96366.66
2022-12-11T14:39:36.198Z,96374.38
2022-12-11T14:41:48.484Z,96368.44
2022-12-11T14:43:55.234Z,96371.94
2022-12-11T14:46:01.940Z,96368.47
2022-12-11T14:48:09.016Z,96364.13
2022-12-11T14:50:20.587Z,96371.94
2022-12-11T14:52:26.877Z,96377.09
2022-12-11T14:54:34.614Z,96385.66
2022-12-11T14:56:37.257Z,96384.03
2022-12-11T14:58:45.365Z,96384.06
2022-12-11T15:00:58.515Z,96384.88
2022-12-11T15:03:03.811Z,96384.06
2022-12-11T15:05:21.256Z,96384.94
2022-12-11T15:07:25.547Z,96381.59
2022-12-11T15:09:30.478Z,96382.44
2022-12-11T15:11:33.725Z,96388.44
2022-12-11T15:13:38.977Z,96383.31
2022-12-11T15:15:46.531Z,96385.06
2022-12-11T15:17:52.999Z,96387.66
2022-12-11T15:19:58.405Z,96391.09
2022-12-11T15:22:07.905Z,96390.22
2022-12-11T15:24:24.566Z,96392.78
2022-12-11T15:26:34.884Z,96391.94
2022-12-11T15:28:39.435Z,96396.22
2022-12-11T15:30:42.271Z,96393.63
2022-12-11T15:32:44.935Z,96391.13
2022-12-11T15:34:49.463Z,96389.41
2022-12-11T15:36:52.357Z,96397.13
2022-12-11T15:38:56.334Z,96392.88
2022-12-11T15:40:59.363Z,96396.31
2022-12-11T15:43:03.292Z,96398.03
2022-12-11T15:45:09.256Z,96398.09
2022-12-11T15:47:16.054Z,96404.09
2022-12-11T15:49:19.042Z,96397.28
2022-12-11T15:51:22.863Z,96409.28
2022-12-11T15:53:25.661Z,96407.53
2022-12-11T15:55:34.837Z,96416.09
2022-12-11T15:57:38.030Z,96412.69
2022-12-11T15:59:40.637Z,96412.72
2022-12-11T16:01:43.383Z,96406.66
2022-12-11T16:03:46.414Z,96411.84
2022-12-11T16:05:50.614Z,96411.81
2022-12-11T16:07:54.543Z,96413.53
2022-12-11T16:09:57.229Z,96415.28
2022-12-11T16:12:01.358Z,96417.00
2022-12-11T16:14:04.540Z,96418.72
2022-12-11T16:16:07.602Z,96423.88
2022-12-11T16:18:12.166Z,96418.78
2022-12-11T16:20:16.149Z,96423.97
2022-12-11T16:22:19.478Z,96420.56
2022-12-11T16:24:22.628Z,96426.53
2022-12-11T16:26:25.427Z,96424.84
2022-12-11T16:28:29.364Z,96423.16
2022-12-11T16:30:32.281Z,96429.19
2022-12-11T16:32:34.963Z,96423.22
2022-12-11T16:34:38.637Z,96426.66
2022-12-11T16:36:41.285Z,96426.66
2022-12-11T16:38:52.925Z,96427.53
2022-12-11T16:41:01.207Z,96430.06
2022-12-11T16:43:04.940Z,96424.09
2022-12-11T16:45:13.646Z,96424.94
2022-12-11T16:47:16.405Z,96417.25
2022-12-11T16:49:19.595Z,96423.22
2022-12-11T16:51:22.423Z,96426.69
2022-12-11T16:53:25.421Z,96428.38
2022-12-11T16:55:28.024Z,96425.81
2022-12-11T16:57:30.842Z,96424.94
2022-12-11T16:59:37.066Z,96424.13
2022-12-11T17:01:41.722Z,96423.28
2022-12-11T17:03:45.129Z,96422.41
2022-12-11T17:05:47.716Z,96419.03
2022-12-11T17:07:50.596Z,96419.03
2022-12-11T17:09:53.245Z,96419.03
2022-12-11T17:11:56.407Z,96413.91
2022-12-11T17:14:00.422Z,96409.63
2022-12-11T17:16:05.693Z,96405.34
2022-12-11T17:18:09.902Z,96414.81
2022-12-11T17:20:12.761Z,96407.13
2022-12-11T17:22:15.342Z,96411.41
2022-12-11T17:24:18.899Z,96410.53
2022-12-11T17:26:21.488Z,96411.44
2022-12-11T17:28:24.085Z,96407.16
2022-12-11T17:30:26.809Z,96406.31
2022-12-11T17:32:29.429Z,96411.47
2022-12-11T17:34:38.112Z,96412.38
2022-12-11T17:36:41.284Z,96416.69
2022-12-11T17:38:44.184Z,96411.59
2022-12-11T17:40:46.865Z,96417.63
2022-12-11T17:42:49.984Z,96412.44
2022-12-11T17:44:52.541Z,96412.44
2022-12-11T17:46:55.157Z,96413.25
2022-12-11T17:49:00.061Z,96418.44
2022-12-11T17:51:07.291Z,96411.59
2022-12-11T17:53:10.175Z,96409.06
2022-12-11T17:55:13.130Z,96405.66
2022-12-11T17:57:15.939Z,96414.22
2022-12-11T17:59:18.634Z,96420.25
2022-12-11T18:01:21.515Z,96415.16
2022-12-11T18:03:24.167Z,96410.88
2022-12-11T18:05:26.950Z,96417.75
2022-12-11T18:07:30.901Z,96416.91
2022-12-11T18:09:33.930Z,96414.38
2022-12-11T18:11:36.508Z,96414.41
2022-12-11T18:13:39.793Z,96415.31
2022-12-11T18:15:42.600Z,96416.16
2022-12-11T18:17:45.492Z,96417.91
2022-12-11T18:19:48.042Z,96423.91
2022-12-11T18:21:50.719Z,96416.22
2022-12-11T18:23:55.019Z,96413.59
2022-12-11T18:25:57.608Z,96411.03
2022-12-11T18:28:00.513Z,96406.00
2022-12-11T18:30:03.165Z,96411.16
2022-12-11T18:32:06.134Z,96402.63
2022-12-11T18:34:09.407Z,96403.53
2022-12-11T18:36:13.104Z,96397.56
2022-12-11T18:38:15.732Z,96401.88
2022-12-11T18:40:19.858Z,96403.63
2022-12-11T18:42:37.690Z,96401.94
2022-12-11T18:44:40.589Z,96407.09
2022-12-11T18:46:43.452Z,96408.00
2022-12-11T18:48:46.896Z,96407.13
2022-12-11T18:50:51.511Z,96408.00
2022-12-11T18:52:54.958Z,96405.50
2022-12-11T18:54:57.717Z,96413.25
2022-12-11T18:57:01.911Z,96406.47
2022-12-11T18:59:04.751Z,96402.25
2022-12-11T19:01:08.778Z,96398.00
2022-12-11T19:03:13.659Z,96411.72
2022-12-11T19:05:16.239Z,96415.19
2022-12-11T19:07:18.920Z,96410.13
2022-12-11T19:09:21.529Z,96414.44
2022-12-11T19:11:26.621Z,96413.63
2022-12-11T19:13:30.650Z,96415.38
2022-12-11T19:15:33.269Z,96418.78
2022-12-11T19:17:35.896Z,96423.91
2022-12-11T19:19:38.554Z,96417.94
2022-12-11T19:21:42.193Z,96419.69
2022-12-11T19:23:45.617Z,96420.59
2022-12-11T19:25:49.201Z,96417.22
2022-12-11T19:27:51.817Z,96418.09
2022-12-11T19:29:55.797Z,96419.78
2022-12-11T19:31:58.423Z,96421.50
2022-12-11T19:34:02.854Z,96420.69
2022-12-11T19:36:09.308Z,96421.56
2022-12-11T19:38:12.780Z,96421.59
2022-12-11T19:40:15.533Z,96420.78
2022-12-11T19:42:18.162Z,96423.34
2022-12-11T19:44:20.832Z,96422.50
2022-12-11T19:46:25.859Z,96424.25
2022-12-11T19:48:28.598Z,96427.69
2022-12-11T19:50:31.222Z,96431.16
2022-12-11T19:52:34.163Z,96427.75
2022-12-11T19:54:37.108Z,96425.19
2022-12-11T19:56:39.955Z,96420.09
2022-12-11T19:58:43.117Z,96421.84
2022-12-11T20:00:47.413Z,96423.56
2022-12-11T20:02:51.737Z,96425.28
2022-12-11T20:04:55.354Z,96417.59
2022-12-11T20:06:58.058Z,96420.16
2022-12-11T20:09:01.281Z,96424.41
2022-12-11T20:11:05.846Z,96425.25
2022-12-11T20:13:08.695Z,96425.28
2022-12-11T20:15:12.271Z,96426.13
2022-12-11T20:17:15.464Z,96426.97
2022-12-11T20:19:19.832Z,96429.56
2022-12-11T20:21:23.440Z,96428.72
2022-12-11T20:23:25.991Z,96427.91
2022-12-11T20:25:28.983Z,96427.91
2022-12-11T20:27:31.614Z,96424.50
2022-12-11T20:29:34.322Z,96428.75
2022-12-11T20:31:37.698Z,96419.38
2022-12-11T20:33:40.747Z,96427.88
2022-12-11T20:35:45.294Z,96428.75
2022-12-11T20:37:47.879Z,96435.56
2022-12-11T20:39:50.537Z,96429.63
2022-12-11T20:41:53.152Z,96423.63
2022-12-11T20:43:55.979Z,96432.19
2022-12-11T20:46:00.144Z,96426.25
2022-12-11T20:48:02.900Z,96427.13
2022-12-11T20:50:06.588Z,96425.44
2022-12-11T20:52:10.610Z,96427.16
2022-12-11T20:54:13.303Z,96428.00
2022-12-11T20:56:19.421Z,96429.72
2022-12-11T20:58:22.326Z,96422.03
2022-12-11T21:00:25.319Z,96422.03
2022-12-11T21:02:30.752Z,96424.59
2022-12-11T21:04:33.635Z,96425.44
2022-12-11T21:06:38.696Z,96425.47
2022-12-11T21:08:42.691Z,96422.91
2022-12-11T21:10:47.320Z,96422.06
2022-12-11T21:12:50.361Z,96425.47
2022-12-11T21:14:52.941Z,96434.88
2022-12-11T21:16:56.309Z,96430.59
2022-12-11T21:18:59.992Z,96429.75
2022-12-11T21:21:02.629Z,96429.75
2022-12-11T21:23:05.497Z,96435.72
2022-12-11T21:25:10.384Z,96439.13
2022-12-11T21:27:13.326Z,96448.50
2022-12-11T21:29:16.702Z,96450.22
2022-12-11T21:31:20.893Z,96450.22
2022-12-11T21:33:23.527Z,96454.44
2022-12-11T21:35:26.168Z,96448.47
2022-12-11T21:37:28.800Z,96451.88
2022-12-11T21:39:36.103Z,96451.91
2022-12-11T21:41:43.169Z,96454.47
2022-12-11T21:44:56.205Z,96445.06
2022-12-11T21:46:12.895Z,96442.50
2022-12-11T21:48:15.688Z,96449.31
2022-12-11T21:50:18.975Z,96450.19
2022-12-11T21:52:21.644Z,96455.28
2022-12-11T21:54:24.297Z,96449.31
2022-12-11T21:56:29.341Z,96451.88
2022-12-11T21:58:33.560Z,96460.41
2022-12-11T22:00:36.986Z,96457.88
2022-12-11T22:02:41.289Z,96468.13
2022-12-11T22:04:47.396Z,96466.41
2022-12-11T22:06:50.014Z,96466.41
2022-12-11T22:08:52.823Z,96469.84
2022-12-11T22:10:56.598Z,96465.56
2022-12-11T22:12:59.287Z,96464.72
2022-12-11T22:15:03.217Z,96468.13
2022-12-11T22:17:05.782Z,96465.56
2022-12-11T22:19:08.499Z,96464.72
2022-12-11T22:21:11.155Z,96469.00
2022-12-11T22:23:13.999Z,96460.44
2022-12-11T22:25:16.635Z,96457.03
2022-12-11T22:27:23.693Z,96463.03
2022-12-11T22:29:26.727Z,96467.28
2022-12-11T22:31:30.741Z,96471.56
2022-12-11T22:33:33.370Z,96469.88
2022-12-11T22:35:36.105Z,96469.88
2022-12-11T22:37:38.730Z,96469.88
2022-12-11T22:39:41.372Z,96471.56
2022-12-11T22:41:44.021Z,96472.41
2022-12-11T22:43:46.855Z,96475.81
2022-12-11T22:45:49.580Z,96472.41
2022-12-11T22:47:53.637Z,96472.41
2022-12-11T22:49:56.416Z,96470.69
2022-12-11T22:51:59.041Z,96473.28
2022-12-11T22:54:01.644Z,96471.56
2022-12-11T22:56:05.889Z,96469.00
2022-12-11T22:58:08.555Z,96476.69
2022-12-11T23:00:16.865Z,96470.69
2022-12-11T23:02:19.618Z,96470.69
2022-12-11T23:04:23.668Z,96474.09
2022-12-11T23:06:26.332Z,96463.88
2022-12-11T23:08:29.066Z,96465.56
2022-12-11T23:10:31.843Z,96475.81
2022-12-11T23:12:34.770Z,96469.84
2022-12-11T23:14:37.477Z,96463.00
2022-12-11T23:16:40.197Z,96466.44
2022-12-11T23:18:43.486Z,96471.53
2022-12-11T23:20:47.418Z,96472.41
2022-12-11T23:22:50.051Z,96470.69
2022-12-11T23:24:52.634Z,96470.69
2022-12-11T23:26:55.277Z,96472.41
2022-12-11T23:28:59.641Z,96474.94
2022-12-11T23:31:02.270Z,96478.34
2022-12-11T23:33:06.520Z,96478.38
2022-12-11T23:35:10.209Z,96486.03
2022-12-11T23:37:14.434Z,96480.94
2022-12-11T23:39:16.997Z,96472.41
2022-12-11T23:41:19.649Z,96470.69
2022-12-11T23:43:22.289Z,96473.28
2022-12-11T23:45:25.306Z,96470.69
2022-12-11T23:47:27.948Z,96476.66
2022-12-11T23:49:30.583Z,96478.38
2022-12-11T23:51:33.197Z,96477.50
2022-12-11T23:53:37.122Z,96486.91
2022-12-11T23:55:41.511Z,96480.06
2022-12-11T23:57:44.156Z,96484.34
2022-12-11T23:59:46.731Z,96486.03
